Lynnewood Gardens, Pennsylvania
Current Conditions -  °F | °C
As of 12:55 AM on Sunday 26 Oct 2014 (Local Time) from KLOM Reporting Station
Overcast Overcast  
Wind Chill: 63°   Ceiling: 8000
Heat Index: 63°   Visibility: 10mi
Dew Point: 45°   Wind: 5mph
Humidity: 52%   Direction: 240°WSW
Pressure: 29.6"   Gusts: NA
Location:  40.0737°N, 75.1707°W
Report Text: KLOM 260455Z AUTO 24004KT 10SM OVC080 17/07 A2960 RMK AO1
Loading
Personal Weather Stations






























Interactive Weather Map
Tropical Storm Tracking
New forecast layout! Learn more

10-Day Weather Forecast

Advertisements
Track Severe Weather on mobile